createdAt,value
2018-05-27T00:00:14.760Z,17.85
2018-05-27T00:01:14.771Z,17.86
2018-05-27T00:02:14.767Z,17.79
2018-05-27T00:03:35.777Z,17.85
2018-05-27T00:04:14.782Z,17.90
2018-05-27T00:05:14.800Z,17.85
2018-05-27T00:06:14.794Z,17.85
2018-05-27T00:07:14.784Z,17.86
2018-05-27T00:08:14.778Z,17.82
2018-05-27T00:09:35.792Z,17.80
2018-05-27T00:10:14.790Z,17.78
2018-05-27T00:11:14.821Z,17.80
2018-05-27T00:12:14.789Z,17.79
2018-05-27T00:13:14.792Z,17.83
2018-05-27T00:14:14.820Z,17.83
2018-05-27T00:15:35.809Z,17.82
2018-05-27T00:16:14.797Z,17.82
2018-05-27T00:17:14.799Z,17.83
2018-05-27T00:18:14.804Z,17.80
2018-05-27T00:19:14.805Z,17.86
2018-05-27T00:20:14.829Z,17.82
2018-05-27T00:21:35.824Z,17.86
2018-05-27T00:22:14.835Z,17.82
2018-05-27T00:23:14.830Z,17.82
2018-05-27T00:24:14.824Z,17.80
2018-05-27T00:25:14.820Z,17.82
2018-05-27T00:26:14.828Z,17.72
2018-05-27T00:27:35.840Z,17.74
2018-05-27T00:28:14.827Z,17.71
2018-05-27T00:29:14.830Z,17.72
2018-05-27T00:30:14.834Z,17.76
2018-05-27T00:31:14.842Z,17.72
2018-05-27T00:32:14.835Z,17.67
2018-05-27T00:33:36.197Z,17.70
2018-05-27T00:34:15.743Z,17.71
2018-05-27T00:35:14.850Z,17.70
2018-05-27T00:36:14.868Z,17.67
2018-05-27T00:37:14.844Z,17.64
2018-05-27T00:38:14.853Z,17.70
2018-05-27T00:39:35.862Z,17.54
2018-05-27T00:40:14.871Z,17.60
2018-05-27T00:41:14.858Z,17.51
2018-05-27T00:42:14.858Z,17.57
2018-05-27T00:43:14.861Z,17.45
2018-05-27T00:44:14.864Z,17.48
2018-05-27T00:45:35.873Z,17.51
2018-05-27T00:46:14.879Z,17.46
2018-05-27T00:47:14.876Z,17.49
2018-05-27T00:48:15.166Z,17.52
2018-05-27T00:49:14.910Z,17.51
2018-05-27T00:50:14.879Z,17.48
2018-05-27T00:51:35.959Z,17.49
2018-05-27T00:52:14.972Z,17.60
2018-05-27T00:53:15.117Z,17.59
2018-05-27T00:54:14.930Z,17.45
2018-05-27T00:55:15.175Z,17.52
2018-05-27T00:56:14.955Z,17.45
2018-05-27T00:57:36.009Z,17.38
2018-05-27T00:58:14.976Z,17.42
2018-05-27T00:59:15.281Z,17.46
2018-05-27T01:00:14.894Z,17.49
2018-05-27T01:01:14.940Z,17.49
2018-05-27T01:02:14.897Z,17.41
2018-05-27T01:03:36.980Z,17.54
2018-05-27T01:04:14.931Z,17.49
2018-05-27T01:05:14.917Z,17.48
2018-05-27T01:06:14.913Z,17.36
2018-05-27T01:07:15.294Z,17.45
2018-05-27T01:08:14.934Z,17.38
2018-05-27T01:09:35.925Z,17.39
2018-05-27T01:10:14.922Z,17.38
2018-05-27T01:11:14.917Z,17.39
2018-05-27T01:12:14.922Z,17.49
2018-05-27T01:13:14.923Z,17.48
2018-05-27T01:14:14.924Z,17.41
2018-05-27T01:15:35.936Z,17.36
2018-05-27T01:16:14.963Z,17.39
2018-05-27T01:17:14.932Z,17.38
2018-05-27T01:18:14.956Z,17.41
2018-05-27T01:19:14.937Z,17.41
2018-05-27T01:20:14.934Z,17.39
2018-05-27T01:21:35.948Z,17.34
2018-05-27T01:22:14.942Z,17.34
2018-05-27T01:23:14.944Z,17.34
2018-05-27T01:24:14.941Z,17.33
2018-05-27T01:25:14.947Z,17.38
2018-05-27T01:26:14.958Z,17.31
2018-05-27T01:27:35.968Z,17.24
2018-05-27T01:28:14.964Z,17.29
2018-05-27T01:29:14.956Z,17.29
2018-05-27T01:30:14.957Z,17.19
2018-05-27T01:31:14.955Z,17.29
2018-05-27T01:32:14.958Z,17.19
2018-05-27T01:33:35.971Z,17.23
2018-05-27T01:34:14.964Z,17.19
2018-05-27T01:35:14.968Z,17.11
2018-05-27T01:36:14.968Z,17.16
2018-05-27T01:37:14.967Z,17.08
2018-05-27T01:38:14.973Z,17.15
2018-05-27T01:39:35.980Z,17.12
2018-05-27T01:40:14.979Z,17.11
2018-05-27T01:41:14.976Z,17.01
2018-05-27T01:42:14.976Z,17.04
2018-05-27T01:43:14.978Z,17.11
2018-05-27T01:44:14.980Z,17.12
2018-05-27T01:45:35.994Z,16.96
2018-05-27T01:46:14.986Z,17.04
2018-05-27T01:47:14.986Z,17.08
2018-05-27T01:48:14.988Z,17.04
2018-05-27T01:49:14.989Z,17.08
2018-05-27T01:50:14.991Z,16.97
2018-05-27T01:51:36.003Z,17.06
2018-05-27T01:52:14.999Z,17.04
2018-05-27T01:53:15.000Z,17.06
2018-05-27T01:54:15.158Z,17.19
2018-05-27T01:55:15.137Z,17.05
2018-05-27T01:56:15.079Z,17.08
2018-05-27T01:57:36.047Z,16.99
2018-05-27T01:58:15.005Z,17.01
2018-05-27T01:59:15.010Z,16.99
2018-05-27T02:00:15.012Z,17.09
2018-05-27T02:01:15.014Z,16.97
2018-05-27T02:02:15.071Z,16.99
2018-05-27T02:03:36.242Z,16.99
2018-05-27T02:04:16.148Z,16.94
2018-05-27T02:05:15.089Z,16.96
2018-05-27T02:06:15.021Z,16.94
2018-05-27T02:07:15.022Z,17.04
2018-05-27T02:08:15.059Z,16.97
2018-05-27T02:09:36.038Z,16.96
2018-05-27T02:10:15.028Z,17.06
2018-05-27T02:11:15.030Z,17.01
2018-05-27T02:12:15.034Z,16.99
2018-05-27T02:13:15.031Z,16.94
2018-05-27T02:14:15.038Z,16.94
2018-05-27T02:15:36.062Z,16.96
2018-05-27T02:16:15.035Z,17.01
2018-05-27T02:17:15.044Z,17.02
2018-05-27T02:18:15.041Z,16.91
2018-05-27T02:19:15.043Z,17.01
2018-05-27T02:20:15.067Z,16.97
2018-05-27T02:21:36.052Z,16.94
2018-05-27T02:22:15.045Z,16.93
2018-05-27T02:23:15.051Z,16.90
2018-05-27T02:24:15.051Z,16.93
2018-05-27T02:25:15.051Z,16.97
2018-05-27T02:26:15.055Z,16.93
2018-05-27T02:27:36.077Z,16.94
2018-05-27T02:28:15.056Z,17.02
2018-05-27T02:29:15.088Z,17.01
2018-05-27T02:30:15.060Z,16.99
2018-05-27T02:31:15.062Z,16.96
2018-05-27T02:32:15.066Z,16.93
2018-05-27T02:33:36.077Z,16.99
2018-05-27T02:34:15.084Z,16.93
2018-05-27T02:35:15.073Z,16.96
2018-05-27T02:36:15.070Z,16.89
2018-05-27T02:37:15.076Z,16.87
2018-05-27T02:38:15.081Z,16.89
2018-05-27T02:39:36.084Z,16.89
2018-05-27T02:40:15.080Z,16.83
2018-05-27T02:41:15.081Z,16.87
2018-05-27T02:42:15.081Z,16.91
2018-05-27T02:43:15.079Z,16.96
2018-05-27T02:44:15.103Z,16.89
2018-05-27T02:45:36.094Z,16.94
2018-05-27T02:46:15.085Z,16.90
2018-05-27T02:47:15.091Z,16.83
2018-05-27T02:48:15.090Z,16.91
2018-05-27T02:49:15.095Z,16.91
2018-05-27T02:50:15.093Z,16.84
2018-05-27T02:51:36.106Z,16.86
2018-05-27T02:52:15.098Z,16.87
2018-05-27T02:53:15.106Z,16.89
2018-05-27T02:54:15.100Z,16.86
2018-05-27T02:55:15.105Z,16.78
2018-05-27T02:56:15.103Z,16.76
2018-05-27T02:57:36.112Z,16.83
2018-05-27T02:58:15.106Z,16.81
2018-05-27T02:59:15.110Z,16.86
2018-05-27T03:00:15.117Z,16.74
2018-05-27T03:01:15.112Z,16.66
2018-05-27T03:02:15.111Z,16.69
2018-05-27T03:03:36.121Z,16.66
2018-05-27T03:04:15.113Z,16.66
2018-05-27T03:05:15.115Z,16.66
2018-05-27T03:06:15.116Z,16.65
2018-05-27T03:07:15.126Z,16.51
2018-05-27T03:08:15.122Z,16.56
2018-05-27T03:09:36.132Z,16.56
2018-05-27T03:10:15.126Z,16.56
2018-05-27T03:11:15.126Z,16.72
2018-05-27T03:12:15.139Z,16.68
2018-05-27T03:13:15.127Z,16.71
2018-05-27T03:14:15.128Z,16.69
2018-05-27T03:15:36.141Z,16.69
2018-05-27T03:16:15.129Z,16.72
2018-05-27T03:17:15.131Z,16.78
2018-05-27T03:18:36.144Z,16.68
2018-05-27T03:19:15.142Z,16.71
2018-05-27T03:20:36.167Z,16.65
2018-05-27T03:21:15.141Z,16.66
2018-05-27T03:22:15.135Z,16.66
2018-05-27T03:23:15.140Z,16.72
2018-05-27T03:24:15.142Z,16.58
2018-05-27T03:25:15.143Z,16.71
2018-05-27T03:26:36.214Z,16.68
2018-05-27T03:27:15.166Z,16.68
2018-05-27T03:28:15.158Z,16.69
2018-05-27T03:29:15.152Z,16.64
2018-05-27T03:30:15.156Z,16.72
2018-05-27T03:31:15.155Z,16.69
2018-05-27T03:32:36.167Z,16.78
2018-05-27T03:33:15.153Z,16.74
2018-05-27T03:34:15.160Z,16.76
2018-05-27T03:35:15.159Z,16.72
2018-05-27T03:36:15.161Z,16.76
2018-05-27T03:37:15.160Z,16.81
2018-05-27T03:38:36.181Z,16.74
2018-05-27T03:39:15.167Z,16.81
2018-05-27T03:40:15.170Z,16.83
2018-05-27T03:41:15.166Z,16.89
2018-05-27T03:42:15.166Z,16.90
2018-05-27T03:43:15.170Z,16.86
2018-05-27T03:44:36.188Z,16.90
2018-05-27T03:45:15.176Z,16.91
2018-05-27T03:46:15.178Z,16.91
2018-05-27T03:47:15.180Z,16.87
2018-05-27T03:48:15.179Z,16.87
2018-05-27T03:49:15.181Z,16.91
2018-05-27T03:50:36.196Z,16.87
2018-05-27T03:51:15.185Z,16.99
2018-05-27T03:52:15.185Z,17.01
2018-05-27T03:53:15.187Z,16.99
2018-05-27T03:54:15.188Z,17.01
2018-05-27T03:55:15.192Z,16.93
2018-05-27T03:56:36.214Z,16.93
2018-05-27T03:57:15.191Z,17.02
2018-05-27T03:58:15.192Z,17.14
2018-05-27T03:59:15.197Z,17.04
2018-05-27T04:00:15.195Z,17.06
2018-05-27T04:01:15.198Z,17.01
2018-05-27T04:02:36.209Z,17.01
2018-05-27T04:03:15.204Z,17.06
2018-05-27T04:04:15.205Z,17.11
2018-05-27T04:05:15.208Z,17.05
2018-05-27T04:06:15.207Z,17.05
2018-05-27T04:07:15.214Z,17.08
2018-05-27T04:08:36.221Z,17.06
2018-05-27T04:09:15.212Z,17.06
2018-05-27T04:10:15.215Z,17.15
2018-05-27T04:11:15.222Z,17.09
2018-05-27T04:12:15.218Z,17.05
2018-05-27T04:13:15.219Z,17.06
2018-05-27T04:14:36.231Z,17.04
2018-05-27T04:15:15.222Z,17.12
2018-05-27T04:16:15.222Z,17.04
2018-05-27T04:17:15.230Z,17.01
2018-05-27T04:18:15.225Z,16.99
2018-05-27T04:19:15.229Z,17.05
2018-05-27T04:20:36.236Z,16.94
2018-05-27T04:21:15.231Z,16.94
2018-05-27T04:22:15.232Z,16.96
2018-05-27T04:23:15.233Z,16.93
2018-05-27T04:24:15.238Z,17.05
2018-05-27T04:25:15.236Z,16.94
2018-05-27T04:26:36.315Z,16.97
2018-05-27T04:27:15.242Z,17.01
2018-05-27T04:28:15.242Z,16.99
2018-05-27T04:29:15.253Z,17.09
2018-05-27T04:30:15.247Z,17.06
2018-05-27T04:31:15.252Z,17.06
2018-05-27T04:32:36.253Z,17.11
2018-05-27T04:33:15.248Z,17.12
2018-05-27T04:34:15.249Z,17.11
2018-05-27T04:35:15.253Z,17.12
2018-05-27T04:36:15.262Z,17.20
2018-05-27T04:37:15.260Z,17.24
2018-05-27T04:38:36.263Z,17.15
2018-05-27T04:39:15.260Z,17.27
2018-05-27T04:40:15.261Z,17.26
2018-05-27T04:41:15.260Z,17.23
2018-05-27T04:42:15.261Z,17.26
2018-05-27T04:43:15.262Z,17.31
2018-05-27T04:44:36.276Z,17.27
2018-05-27T04:45:15.265Z,17.26
2018-05-27T04:46:15.268Z,17.27
2018-05-27T04:47:15.273Z,17.31
2018-05-27T04:48:15.268Z,17.27
2018-05-27T04:49:15.272Z,17.31
2018-05-27T04:50:36.282Z,17.31
2018-05-27T04:51:15.278Z,17.34
2018-05-27T04:52:15.277Z,17.42
2018-05-27T04:53:15.277Z,17.41
2018-05-27T04:54:15.283Z,17.39
2018-05-27T04:55:15.284Z,17.36
2018-05-27T04:56:36.314Z,17.46
2018-05-27T04:57:15.294Z,17.39
2018-05-27T04:58:15.287Z,17.48
2018-05-27T04:59:15.288Z,17.45
2018-05-27T05:00:15.291Z,17.57
2018-05-27T05:01:15.291Z,17.56
2018-05-27T05:02:36.301Z,17.57
2018-05-27T05:03:15.297Z,17.46
2018-05-27T05:04:15.295Z,17.63
2018-05-27T05:05:15.297Z,17.57
2018-05-27T05:06:15.301Z,17.57
2018-05-27T05:07:15.301Z,17.74
2018-05-27T05:08:36.311Z,17.70
2018-05-27T05:09:15.308Z,17.68
2018-05-27T05:10:15.312Z,17.79
2018-05-27T05:11:15.312Z,17.86
2018-05-27T05:12:15.310Z,17.86
2018-05-27T05:13:15.311Z,17.92
2018-05-27T05:14:36.326Z,17.95
2018-05-27T05:15:15.316Z,17.92
2018-05-27T05:16:15.316Z,17.98
2018-05-27T05:17:15.320Z,17.98
2018-05-27T05:18:15.322Z,17.92
2018-05-27T05:19:15.328Z,17.95
2018-05-27T05:20:36.337Z,17.97
2018-05-27T05:21:15.330Z,18.00
2018-05-27T05:22:15.381Z,17.97
2018-05-27T05:23:15.331Z,17.89
2018-05-27T05:24:15.350Z,18.03
2018-05-27T05:25:15.335Z,18.07
2018-05-27T05:26:36.420Z,18.10
2018-05-27T05:27:15.340Z,18.08
2018-05-27T05:28:15.348Z,18.16
2018-05-27T05:29:15.344Z,18.15
2018-05-27T05:30:15.348Z,18.10
2018-05-27T05:31:15.354Z,18.11
2018-05-27T05:32:36.361Z,18.13
2018-05-27T05:33:15.352Z,18.13
2018-05-27T05:34:15.360Z,18.15
2018-05-27T05:35:15.356Z,18.18
2018-05-27T05:36:15.392Z,18.25
2018-05-27T05:37:15.360Z,18.23
2018-05-27T05:38:36.372Z,18.34
2018-05-27T05:39:15.365Z,18.37
2018-05-27T05:40:15.369Z,18.41
2018-05-27T05:41:15.372Z,18.45
2018-05-27T05:42:15.374Z,18.43
2018-05-27T05:43:15.372Z,18.45
2018-05-27T05:44:36.389Z,18.55
2018-05-27T05:45:15.379Z,18.58
2018-05-27T05:46:15.380Z,18.62
2018-05-27T05:47:15.383Z,18.70
2018-05-27T05:48:15.387Z,18.77
2018-05-27T05:49:15.441Z,18.80
2018-05-27T05:50:36.400Z,18.89
2018-05-27T05:51:15.398Z,18.92
2018-05-27T05:52:15.402Z,18.93
2018-05-27T05:53:15.397Z,18.93
2018-05-27T05:54:15.407Z,19.09
2018-05-27T05:55:15.403Z,19.12
2018-05-27T05:56:36.519Z,19.11
2018-05-27T05:57:15.408Z,19.19
2018-05-27T05:58:15.412Z,19.33
2018-05-27T05:59:15.414Z,19.55
2018-05-27T06:00:15.419Z,19.58
2018-05-27T06:01:15.441Z,19.64
2018-05-27T06:02:36.432Z,19.71
2018-05-27T06:03:15.427Z,19.70
2018-05-27T06:04:15.432Z,19.70
2018-05-27T06:05:15.433Z,19.66
2018-05-27T06:06:15.459Z,19.54
2018-05-27T06:07:15.442Z,19.47
2018-05-27T06:08:36.453Z,19.34
2018-05-27T06:09:15.447Z,19.63
2018-05-27T06:10:15.455Z,19.92
2018-05-27T06:11:15.451Z,20.00
2018-05-27T06:12:15.458Z,19.99
2018-05-27T06:13:15.456Z,19.79
2018-05-27T06:14:36.467Z,19.74
2018-05-27T06:15:15.462Z,19.64
2018-05-27T06:16:15.485Z,19.58
2018-05-27T06:17:15.474Z,19.51
2018-05-27T06:18:15.477Z,19.45
2018-05-27T06:19:15.478Z,19.33
2018-05-27T06:20:36.488Z,19.34
2018-05-27T06:21:15.483Z,19.24
2018-05-27T06:22:15.490Z,19.26
2018-05-27T06:23:15.487Z,19.26
2018-05-27T06:24:15.487Z,19.31
2018-05-27T06:25:15.493Z,19.37
2018-05-27T06:26:36.521Z,19.27
2018-05-27T06:27:15.508Z,19.31
2018-05-27T06:28:15.512Z,19.29
2018-05-27T06:29:15.517Z,19.26
2018-05-27T06:30:15.509Z,19.26
2018-05-27T06:31:15.513Z,19.31
2018-05-27T06:32:36.529Z,19.27
2018-05-27T06:33:15.516Z,19.30
2018-05-27T06:34:15.519Z,19.36
2018-05-27T06:35:15.525Z,19.34
2018-05-27T06:36:15.568Z,19.39
2018-05-27T06:37:15.527Z,19.34
2018-05-27T06:38:36.546Z,19.41
2018-05-27T06:39:15.534Z,19.52
2018-05-27T06:40:15.537Z,19.44
2018-05-27T06:41:15.543Z,19.49
2018-05-27T06:42:15.545Z,19.51
2018-05-27T06:43:15.549Z,19.44
2018-05-27T06:44:36.570Z,19.49
2018-05-27T06:45:15.553Z,19.49
2018-05-27T06:46:15.555Z,19.37
2018-05-27T06:47:15.557Z,19.36
2018-05-27T06:48:15.558Z,19.39
2018-05-27T06:49:15.562Z,19.40
2018-05-27T06:50:36.584Z,19.41
2018-05-27T06:51:15.573Z,19.49
2018-05-27T06:52:15.572Z,19.44
2018-05-27T06:53:15.576Z,19.40
2018-05-27T06:54:15.575Z,19.41
2018-05-27T06:55:15.577Z,19.45
2018-05-27T06:56:36.629Z,19.58
2018-05-27T06:57:15.588Z,19.48
2018-05-27T06:58:15.590Z,19.55
2018-05-27T06:59:15.592Z,19.56
2018-05-27T07:00:15.598Z,19.54
2018-05-27T07:01:15.600Z,19.58
2018-05-27T07:02:36.613Z,19.62
2018-05-27T07:03:15.601Z,19.56
2018-05-27T07:04:15.606Z,19.73
2018-05-27T07:05:15.608Z,19.77
2018-05-27T07:06:15.610Z,19.76
2018-05-27T07:07:15.616Z,19.74
2018-05-27T07:08:36.630Z,19.89
2018-05-27T07:09:15.622Z,19.89
2018-05-27T07:10:15.628Z,19.89
2018-05-27T07:11:15.628Z,19.95
2018-05-27T07:12:15.628Z,20.03
2018-05-27T07:13:15.635Z,19.95
2018-05-27T07:14:36.645Z,20.00
2018-05-27T07:15:15.636Z,20.03
2018-05-27T07:16:15.645Z,20.07
2018-05-27T07:17:15.643Z,20.07
2018-05-27T07:18:15.647Z,20.11
2018-05-27T07:19:15.652Z,20.25
2018-05-27T07:20:36.661Z,20.19
2018-05-27T07:21:15.657Z,20.21
2018-05-27T07:22:15.662Z,20.19
2018-05-27T07:23:15.664Z,20.25
2018-05-27T07:24:15.667Z,20.37
2018-05-27T07:25:15.671Z,20.29
2018-05-27T07:26:36.725Z,20.32
2018-05-27T07:27:15.677Z,20.47
2018-05-27T07:28:15.700Z,20.44
2018-05-27T07:29:15.699Z,20.47
2018-05-27T07:30:15.686Z,20.48
2018-05-27T07:31:15.690Z,20.47
2018-05-27T07:32:36.710Z,20.44
2018-05-27T07:33:15.697Z,20.52
2018-05-27T07:34:15.702Z,20.44
2018-05-27T07:35:15.703Z,20.51
2018-05-27T07:36:15.707Z,20.56
2018-05-27T07:37:15.713Z,20.58
2018-05-27T07:38:36.725Z,20.66
2018-05-27T07:39:15.719Z,20.65
2018-05-27T07:40:15.725Z,20.69
2018-05-27T07:41:15.727Z,20.63
2018-05-27T07:42:15.732Z,20.60
2018-05-27T07:43:15.737Z,20.62
2018-05-27T07:44:36.746Z,20.74
2018-05-27T07:45:15.742Z,20.72
2018-05-27T07:46:15.743Z,20.72
2018-05-27T07:47:15.748Z,20.70
2018-05-27T07:48:15.751Z,20.77
2018-05-27T07:49:15.754Z,20.77
2018-05-27T07:50:36.770Z,20.82
2018-05-27T07:51:15.764Z,20.90
2018-05-27T07:52:15.765Z,20.93
2018-05-27T07:53:15.769Z,21.05
2018-05-27T07:54:15.772Z,21.00
2018-05-27T07:55:15.774Z,21.00
2018-05-27T07:56:36.824Z,20.99
2018-05-27T07:57:15.785Z,21.06
2018-05-27T07:58:15.856Z,21.11
2018-05-27T07:59:15.791Z,20.97
2018-05-27T08:00:15.794Z,21.20
2018-05-27T08:01:15.803Z,21.06
2018-05-27T08:02:36.811Z,21.18
2018-05-27T08:03:15.828Z,21.17
2018-05-27T08:04:15.811Z,21.20
2018-05-27T08:05:15.815Z,21.32
2018-05-27T08:06:15.824Z,21.35
2018-05-27T08:07:15.822Z,21.40
2018-05-27T08:08:36.836Z,21.46
2018-05-27T08:09:15.836Z,21.48
2018-05-27T08:10:15.836Z,21.60
2018-05-27T08:11:15.840Z,21.57
2018-05-27T08:12:15.840Z,21.55
2018-05-27T08:13:15.845Z,21.67
2018-05-27T08:14:36.860Z,21.60
2018-05-27T08:15:15.856Z,21.62
2018-05-27T08:16:15.858Z,21.66
2018-05-27T08:17:15.861Z,21.61
2018-05-27T08:18:15.866Z,21.70
2018-05-27T08:19:15.881Z,21.73
2018-05-27T08:20:36.885Z,21.72
2018-05-27T08:21:15.884Z,21.69
2018-05-27T08:22:15.885Z,21.66
2018-05-27T08:23:15.887Z,21.70
2018-05-27T08:24:15.890Z,21.72
2018-05-27T08:25:15.897Z,21.62
2018-05-27T08:26:36.926Z,21.75
2018-05-27T08:27:15.904Z,21.75
2018-05-27T08:28:15.907Z,21.83
2018-05-27T08:29:15.912Z,21.79
2018-05-27T08:30:15.917Z,21.88
2018-05-27T08:31:15.928Z,21.99
2018-05-27T08:32:36.932Z,22.06
2018-05-27T08:33:15.929Z,22.23
2018-05-27T08:34:15.933Z,22.88
2018-05-27T08:35:15.938Z,23.51
2018-05-27T08:36:15.945Z,24.17
2018-05-27T08:37:15.971Z,24.14
2018-05-27T08:38:36.961Z,24.45
2018-05-27T08:39:15.963Z,24.39
2018-05-27T08:40:15.965Z,24.96
2018-05-27T08:41:15.965Z,25.59
2018-05-27T08:42:15.973Z,26.18
2018-05-27T08:43:15.983Z,26.66
2018-05-27T08:44:36.990Z,26.90
2018-05-27T08:45:15.989Z,27.15
2018-05-27T08:46:15.992Z,27.63
2018-05-27T08:47:16.002Z,27.95
2018-05-27T08:48:16.005Z,28.37
2018-05-27T08:49:16.016Z,28.79
2018-05-27T08:50:37.033Z,28.57
2018-05-27T08:51:16.024Z,28.29
2018-05-27T08:52:16.033Z,27.59
2018-05-27T08:53:16.043Z,27.30
2018-05-27T08:54:16.053Z,26.73
2018-05-27T08:55:16.055Z,26.70
2018-05-27T08:56:37.130Z,26.97
2018-05-27T08:57:16.120Z,27.36
2018-05-27T08:58:16.074Z,27.29
2018-05-27T08:59:16.082Z,27.70
2018-05-27T09:00:16.086Z,27.85
2018-05-27T09:01:16.155Z,28.04
2018-05-27T09:02:37.108Z,28.25
2018-05-27T09:03:16.107Z,28.26
2018-05-27T09:04:16.115Z,28.48
2018-05-27T09:05:16.131Z,28.78
2018-05-27T09:06:16.131Z,28.64
2018-05-27T09:07:16.136Z,28.67
2018-05-27T09:08:37.154Z,28.88
2018-05-27T09:09:16.163Z,29.38
2018-05-27T09:10:16.159Z,29.73
2018-05-27T09:11:16.166Z,30.13
2018-05-27T09:12:16.175Z,30.43
2018-05-27T09:13:16.186Z,30.51
2018-05-27T09:14:37.221Z,30.69
2018-05-27T09:15:16.248Z,30.77
2018-05-27T09:16:16.216Z,30.73
2018-05-27T09:17:16.216Z,30.83
2018-05-27T09:18:16.230Z,31.06
2018-05-27T09:19:16.235Z,31.59
2018-05-27T09:20:37.253Z,31.76
2018-05-27T09:21:16.253Z,31.49
2018-05-27T09:22:16.261Z,31.18
2018-05-27T09:23:16.272Z,31.17
2018-05-27T09:24:16.278Z,31.14
2018-05-27T09:25:16.292Z,31.17
2018-05-27T09:26:37.333Z,31.05
2018-05-27T09:27:16.308Z,30.51
2018-05-27T09:28:16.334Z,30.66
2018-05-27T09:29:16.326Z,31.43
2018-05-27T09:30:16.338Z,31.71
2018-05-27T09:31:16.351Z,31.74
2018-05-27T09:32:37.368Z,31.76
2018-05-27T09:33:16.367Z,31.74
2018-05-27T09:34:16.380Z,31.96
2018-05-27T09:35:16.389Z,32.03
2018-05-27T09:36:16.398Z,32.15
2018-05-27T09:37:16.412Z,32.55
2018-05-27T09:38:37.432Z,33.27
2018-05-27T09:39:16.498Z,33.76
2018-05-27T09:40:16.437Z,33.62
2018-05-27T09:41:16.446Z,33.92
2018-05-27T09:42:16.468Z,34.38
2018-05-27T09:43:16.469Z,34.18
2018-05-27T09:44:37.504Z,34.18
2018-05-27T09:45:16.531Z,33.98
2018-05-27T09:46:16.511Z,32.92
2018-05-27T09:47:16.520Z,31.90
2018-05-27T09:48:16.548Z,31.24
2018-05-27T09:49:16.538Z,31.43
2018-05-27T09:50:37.563Z,32.12
2018-05-27T09:51:16.562Z,32.67
2018-05-27T09:52:16.571Z,32.83
2018-05-27T09:53:16.579Z,32.38
2018-05-27T09:54:16.591Z,31.71
2018-05-27T09:55:16.600Z,30.87
2018-05-27T09:56:37.642Z,30.37
2018-05-27T09:57:16.624Z,30.30
2018-05-27T09:58:16.640Z,30.94
2018-05-27T09:59:16.642Z,31.43
2018-05-27T10:00:16.652Z,31.62
2018-05-27T10:01:16.668Z,31.89
2018-05-27T10:02:37.686Z,32.01
2018-05-27T10:03:16.698Z,32.36
2018-05-27T10:04:16.695Z,32.53
2018-05-27T10:05:16.730Z,32.58
2018-05-27T10:06:16.716Z,32.51
2018-05-27T10:07:16.726Z,32.45
2018-05-27T10:08:37.748Z,32.51
2018-05-27T10:09:16.749Z,32.70
2018-05-27T10:10:16.759Z,32.92
2018-05-27T10:11:16.772Z,33.08
2018-05-27T10:12:16.778Z,33.32
2018-05-27T10:13:16.865Z,33.43
2018-05-27T10:14:37.814Z,33.62
2018-05-27T10:15:16.813Z,33.69
2018-05-27T10:16:16.825Z,33.52
2018-05-27T10:17:16.837Z,33.39
2018-05-27T10:18:16.844Z,33.86
2018-05-27T10:19:16.860Z,34.47
2018-05-27T10:20:37.885Z,35.04
2018-05-27T10:21:16.878Z,35.22
2018-05-27T10:22:16.890Z,35.33
2018-05-27T10:23:16.904Z,35.80
2018-05-27T10:24:16.920Z,36.23
2018-05-27T10:25:16.932Z,36.40
2018-05-27T10:26:38.048Z,36.28
2018-05-27T10:27:16.957Z,35.80
2018-05-27T10:28:16.968Z,35.64
2018-05-27T10:29:16.979Z,36.09
2018-05-27T10:30:16.994Z,36.45
2018-05-27T10:31:17.013Z,35.97
2018-05-27T10:32:38.035Z,35.60
2018-05-27T10:33:17.032Z,35.37
2018-05-27T10:34:17.053Z,35.19
2018-05-27T10:35:17.063Z,35.48
2018-05-27T10:36:17.095Z,35.46
2018-05-27T10:37:17.091Z,35.80
2018-05-27T10:38:38.120Z,36.18
2018-05-27T10:39:17.174Z,36.39
2018-05-27T10:40:17.126Z,35.74
2018-05-27T10:41:17.141Z,35.33
2018-05-27T10:42:17.171Z,34.75
2018-05-27T10:43:17.186Z,34.38
2018-05-27T10:44:38.205Z,34.48
2018-05-27T10:45:17.216Z,34.70
2018-05-27T10:46:17.207Z,34.99
2018-05-27T10:47:17.220Z,34.95
2018-05-27T10:48:17.238Z,35.02
2018-05-27T10:49:17.261Z,35.02
2018-05-27T10:50:38.279Z,35.00
2018-05-27T10:51:17.291Z,35.37
2018-05-27T10:52:17.290Z,35.58
2018-05-27T10:53:17.323Z,35.04
2018-05-27T10:54:17.315Z,34.48
2018-05-27T10:55:17.379Z,34.27
2018-05-27T10:56:38.460Z,34.05
2018-05-27T10:57:17.368Z,33.65
2018-05-27T10:58:17.381Z,32.85
2018-05-27T10:59:17.384Z,32.19
2018-05-27T11:00:17.393Z,31.99
2018-05-27T11:01:17.404Z,31.49
2018-05-27T11:02:38.427Z,31.10
2018-05-27T11:03:17.437Z,30.94
2018-05-27T11:04:17.437Z,30.61
2018-05-27T11:05:17.455Z,30.44
2018-05-27T11:06:17.466Z,30.03
2018-05-27T11:07:17.484Z,29.87
2018-05-27T11:08:38.494Z,29.73
2018-05-27T11:09:17.496Z,29.78
2018-05-27T11:10:17.507Z,30.02
2018-05-27T11:11:17.529Z,30.21
2018-05-27T11:12:17.534Z,30.31
2018-05-27T11:13:17.535Z,30.39
2018-05-27T11:14:38.554Z,30.35
2018-05-27T11:15:17.557Z,30.30
2018-05-27T11:16:17.561Z,30.06
2018-05-27T11:17:17.579Z,29.68
2018-05-27T11:18:17.588Z,29.60
2018-05-27T11:19:17.589Z,29.10
2018-05-27T11:20:38.659Z,28.91
2018-05-27T11:21:17.608Z,28.82
2018-05-27T11:22:17.623Z,28.63
2018-05-27T11:23:17.623Z,28.49
2018-05-27T11:24:17.643Z,28.37
2018-05-27T11:25:17.645Z,28.27
2018-05-27T11:26:38.767Z,28.02
2018-05-27T11:27:17.667Z,27.85
2018-05-27T11:28:17.673Z,27.71
2018-05-27T11:29:17.680Z,27.55
2018-05-27T11:30:17.688Z,27.42
2018-05-27T11:31:17.696Z,27.37
2018-05-27T11:32:38.718Z,27.30
2018-05-27T11:33:17.709Z,27.11
2018-05-27T11:34:17.764Z,27.14
2018-05-27T11:35:17.723Z,27.15
2018-05-27T11:36:17.729Z,27.15
2018-05-27T11:37:17.750Z,27.03
2018-05-27T11:38:38.757Z,27.11
2018-05-27T11:39:17.756Z,27.05
2018-05-27T11:40:17.776Z,27.08
2018-05-27T11:41:17.771Z,27.10
2018-05-27T11:42:17.792Z,26.97
2018-05-27T11:43:17.788Z,26.93
2018-05-27T11:44:38.800Z,26.83
2018-05-27T11:45:17.801Z,26.88
2018-05-27T11:46:17.803Z,26.85
2018-05-27T11:47:17.814Z,26.88
2018-05-27T11:48:17.822Z,26.77
2018-05-27T11:49:17.835Z,26.75
2018-05-27T11:50:38.846Z,26.65
2018-05-27T11:51:17.851Z,26.59
2018-05-27T11:52:17.849Z,26.53
2018-05-27T11:53:17.870Z,26.43
2018-05-27T11:54:17.917Z,26.52
2018-05-27T11:55:17.872Z,26.43
2018-05-27T11:56:38.973Z,26.41
2018-05-27T11:57:17.889Z,26.31
2018-05-27T11:58:17.891Z,26.21
2018-05-27T11:59:17.897Z,26.07
2018-05-27T12:00:17.916Z,26.02
2018-05-27T12:01:17.908Z,25.93
2018-05-27T12:02:38.926Z,25.81
2018-05-27T12:03:17.922Z,25.75
2018-05-27T12:04:17.926Z,25.68
2018-05-27T12:05:17.933Z,25.65
2018-05-27T12:06:17.939Z,25.73
2018-05-27T12:07:17.950Z,25.70
2018-05-27T12:08:38.963Z,25.66
2018-05-27T12:09:18.017Z,25.69
2018-05-27T12:10:17.968Z,25.62
2018-05-27T12:11:17.978Z,25.47
2018-05-27T12:12:17.976Z,25.43
2018-05-27T12:13:17.982Z,25.48
2018-05-27T12:14:39.003Z,25.40
2018-05-27T12:15:18.002Z,25.41
2018-05-27T12:16:18.003Z,25.29
2018-05-27T12:17:18.022Z,25.31
2018-05-27T12:18:18.022Z,25.29
2018-05-27T12:19:18.020Z,25.26
2018-05-27T12:20:39.037Z,25.23
2018-05-27T12:21:18.034Z,25.18
2018-05-27T12:22:18.037Z,25.28
2018-05-27T12:23:18.044Z,25.22
2018-05-27T12:24:18.053Z,25.17
2018-05-27T12:25:18.055Z,25.23
2018-05-27T12:26:39.175Z,25.16
2018-05-27T12:27:18.069Z,25.16
2018-05-27T12:28:18.081Z,25.26
2018-05-27T12:29:18.082Z,25.23
2018-05-27T12:30:18.092Z,25.23
2018-05-27T12:31:18.096Z,25.21
2018-05-27T12:32:39.107Z,25.22
2018-05-27T12:33:18.119Z,25.25
2018-05-27T12:34:18.107Z,25.10
2018-05-27T12:35:18.117Z,25.01
2018-05-27T12:36:18.119Z,25.06
2018-05-27T12:37:18.123Z,24.92
2018-05-27T12:38:39.145Z,24.99
2018-05-27T12:39:18.142Z,24.92
2018-05-27T12:40:18.142Z,24.89
2018-05-27T12:41:18.157Z,24.84
2018-05-27T12:42:18.228Z,24.95
2018-05-27T12:43:18.172Z,24.92
2018-05-27T12:44:39.253Z,24.89
2018-05-27T12:45:18.289Z,24.91
2018-05-27T12:46:18.204Z,24.89
2018-05-27T12:47:18.187Z,24.88
2018-05-27T12:48:18.194Z,24.85
2018-05-27T12:49:18.194Z,24.73
2018-05-27T12:50:39.212Z,24.69
2018-05-27T12:51:18.205Z,24.66
2018-05-27T12:52:18.211Z,24.66